Time;durP1;ratioP1;P1;durP2;ratioP2;P2;SDS_P1;SDS_P2;PMS_P1;PMS_P2;Temp;Humidity;BMP_temperature;BMP_pressure;BME280_temperature;BME280_humidity;BME280_pressure;Samples;Min_cycle;Max_cycle;Signal;HPM_P1;HPM_P2
2022/03/04 00:08:25;;;;;;;25.17;11.55;;;1.90;99.90;;;;;;20897239;28;20555;-72
2022/03/04 00:18:26;;;;;;;30.33;12.68;;;1.90;99.90;;;;;;20862645;28;20575;-72
2022/03/04 00:28:27;;;;;;;30.05;12.25;;;2.00;99.90;;;;;;20855882;28;20105;-71
2022/03/04 00:38:28;;;;;;;26.98;12.40;;;1.60;99.90;;;;;;20895763;28;20134;-72
2022/03/04 00:48:28;;;;;;;27.63;12.13;;;1.80;99.90;;;;;;20917218;28;20036;-72
2022/03/04 00:58:29;;;;;;;23.42;10.43;;;1.70;99.90;;;;;;20882017;28;20042;-72
2022/03/04 01:08:30;;;;;;;26.13;11.85;;;1.70;99.90;;;;;;20874342;28;20056;-72
2022/03/04 01:18:31;;;;;;;27.10;12.05;;;1.80;99.90;;;;;;20819827;28;20064;-72
2022/03/04 01:28:33;;;;;;;25.35;11.00;;;1.60;99.90;;;;;;20879913;28;20128;-72
2022/03/04 01:38:34;;;;;;;23.95;12.18;;;1.60;99.90;;;;;;21057598;23;20063;-73
2022/03/04 01:48:35;;;;;;;33.05;12.15;;;1.60;99.90;;;;;;21055297;28;20043;-74
2022/03/04 01:58:36;;;;;;;29.42;12.43;;;1.40;99.90;;;;;;21037370;28;20059;-72
2022/03/04 02:08:37;;;;;;;28.67;12.85;;;1.30;99.90;;;;;;21030607;28;20395;-73
2022/03/04 02:18:37;;;;;;;26.58;12.65;;;1.30;99.90;;;;;;21035621;28;20456;-73
2022/03/04 02:28:38;;;;;;;33.80;13.02;;;1.20;99.90;;;;;;21034537;28;20820;-74
2022/03/04 02:38:39;;;;;;;27.77;12.70;;;1.00;99.90;;;;;;21053044;28;20398;-73
2022/03/04 02:48:41;;;;;;;26.67;12.00;;;0.80;99.90;;;;;;21052468;28;20093;-72
2022/03/04 02:58:41;;;;;;;27.95;11.57;;;0.60;99.90;;;;;;21044225;28;20624;-73
2022/03/04 03:08:42;;;;;;;23.77;10.48;;;0.50;99.90;;;;;;20993533;28;20035;-73
2022/03/04 03:18:43;;;;;;;25.90;11.43;;;0.30;99.90;;;;;;21003608;28;20048;-73
2022/03/04 03:28:44;;;;;;;25.73;11.30;;;0.50;99.90;;;;;;20985256;28;20039;-72
2022/03/04 03:38:45;;;;;;;19.05;9.60;;;0.20;99.90;;;;;;21002046;28;20034;-73
2022/03/04 03:48:45;;;;;;;26.83;10.32;;;0.50;99.90;;;;;;21001603;28;20043;-72
2022/03/04 03:58:46;;;;;;;29.25;10.27;;;0.50;99.90;;;;;;21000629;28;20025;-74
2022/03/04 04:08:47;;;;;;;23.08;10.10;;;0.40;99.90;;;;;;21000042;28;20028;-74
2022/03/04 04:18:48;;;;;;;19.63;8.40;;;0.50;99.90;;;;;;20999162;28;20028;-73
2022/03/04 04:28:50;;;;;;;28.50;12.18;;;0.30;99.90;;;;;;20998386;28;20028;-73
2022/03/04 04:38:52;;;;;;;23.67;9.65;;;0.10;99.90;;;;;;20997257;28;20108;-74
2022/03/04 04:48:53;;;;;;;25.10;10.82;;;0.40;99.90;;;;;;20981998;28;20070;-73
2022/03/04 04:58:54;;;;;;;24.58;10.23;;;0.20;99.90;;;;;;20913339;28;20483;-73
2022/03/04 05:08:55;;;;;;;27.60;9.80;;;0.10;99.90;;;;;;20912317;28;20037;-74
2022/03/04 05:18:56;;;;;;;20.35;9.88;;;-0.10;99.90;;;;;;20935606;28;20040;-73
2022/03/04 05:28:58;;;;;;;24.63;10.32;;;-0.20;99.90;;;;;;20993468;28;20020;-74
2022/03/04 05:38:59;;;;;;;27.77;10.43;;;-0.20;99.90;;;;;;20992528;28;20087;-74
2022/03/04 05:49:00;;;;;;;23.10;10.35;;;-0.40;99.90;;;;;;20989196;28;20383;-74
2022/03/04 05:59:02;;;;;;;26.13;10.35;;;-0.20;99.90;;;;;;20991549;28;20030;-74
2022/03/04 06:09:02;;;;;;;24.45;10.13;;;-0.20;99.90;;;;;;20982139;28;20433;-73
2022/03/04 06:19:04;;;;;;;27.13;10.05;;;-0.40;99.90;;;;;;20990463;28;20063;-75
2022/03/04 06:29:05;;;;;;;24.77;10.90;;;-0.20;99.90;;;;;;20958034;28;20028;-75
2022/03/04 06:39:05;;;;;;;23.60;10.68;;;-0.20;99.90;;;;;;20963371;28;20509;-74
2022/03/04 06:49:10;;;;;;;19.10;9.40;;;0.10;99.90;;;;;;21002450;28;20052;-76
2022/03/04 06:59:11;;;;;;;23.23;10.93;;;1.30;99.90;;;;;;20947237;28;20033;-75
2022/03/04 07:09:12;;;;;;;25.20;11.98;;;1.70;99.90;;;;;;20922043;28;20033;-75
2022/03/04 07:19:13;;;;;;;27.13;11.88;;;2.50;99.90;;;;;;20921136;28;20495;-75
2022/03/04 07:29:14;;;;;;;;;;;3.20;99.90;;;;;;20920737;28;20048;-75
2022/03/04 07:39:15;;;;;;;22.98;10.80;;;3.90;99.90;;;;;;20871308;22;20022;-74
2022/03/04 07:49:16;;;;;;;28.23;12.13;;;4.50;99.90;;;;;;20838116;28;20033;-72
2022/03/04 07:59:17;;;;;;;25.15;11.75;;;5.00;99.90;;;;;;20836263;28;20034;-74
2022/03/04 08:09:18;;;;;;;21.77;11.60;;;5.70;99.90;;;;;;20835640;28;20029;-75
2022/03/04 08:19:18;;;;;;;22.83;11.57;;;6.10;99.90;;;;;;20834866;28;20037;-75
2022/03/04 08:29:20;;;;;;;23.05;11.68;;;6.50;99.90;;;;;;20838346;28;20061;-74
2022/03/04 08:39:21;;;;;;;23.63;12.20;;;7.40;99.90;;;;;;20832917;28;20429;-75
2022/03/04 08:49:21;;;;;;;25.03;12.67;;;7.60;99.90;;;;;;20832557;28;20029;-75
2022/03/04 08:59:22;;;;;;;30.77;12.33;;;7.10;99.90;;;;;;20781188;28;20044;-75
2022/03/04 09:09:24;;;;;;;25.08;12.75;;;8.00;99.90;;;;;;20799931;28;20057;-75
2022/03/04 09:19:27;;;;;;;27.97;14.40;;;9.40;99.90;;;;;;20809852;28;20087;-73
2022/03/04 09:29:27;;;;;;;27.77;13.75;;;9.60;99.90;;;;;;20772203;28;20084;-75
2022/03/04 09:39:28;;;;;;;26.40;12.83;;;9.60;99.90;;;;;;20708950;28;20124;-75
2022/03/04 09:49:35;;;;;;;29.40;14.97;;;10.50;99.90;;;;;;20719244;28;20046;-72
2022/03/04 09:59:36;;;;;;;30.23;14.73;;;10.60;97.80;;;;;;20766725;28;20427;-75
2022/03/04 10:09:48;;;;;;;34.53;17.87;;;11.20;96.60;;;;;;20727682;28;20096;-74
2022/03/04 10:19:57;;;;;;;27.00;14.15;;;11.30;93.80;;;;;;20791822;28;20136;-75
2022/03/04 10:29:59;;;;;;;28.75;14.45;;;12.10;92.20;;;;;;20762030;28;20512;-74
2022/03/04 10:40:13;;;;;;;28.60;12.77;;;11.70;92.20;;;;;;20706384;28;20077;-74
2022/03/04 10:50:14;;;;;;;29.13;13.98;;;11.70;92.00;;;;;;20711269;28;20045;-75
2022/03/04 11:00:22;;;;;;;;;;;12.40;90.40;;;;;;20760426;28;20049;-75
2022/03/04 11:10:23;;;;;;;21.38;11.25;;;12.30;89.10;;;;;;20723165;28;19916;-74
2022/03/04 11:20:24;;;;;;;21.80;11.67;;;12.80;86.00;;;;;;20722230;28;20030;-75
2022/03/04 11:30:28;;;;;;;21.10;9.67;;;13.10;85.60;;;;;;20727149;28;20049;-73
2022/03/04 11:40:33;;;;;;;18.60;9.75;;;12.70;87.00;;;;;;20776045;28;20029;-75
2022/03/04 11:50:47;;;;;;;19.83;9.63;;;13.40;85.90;;;;;;20758432;28;20026;-74
2022/03/04 12:00:48;;;;;;;17.85;8.77;;;13.70;82.90;;;;;;20733937;28;20034;-74
2022/03/04 12:10:53;;;;;;;15.23;8.90;;;14.00;81.80;;;;;;20738847;28;20093;-74
2022/03/04 12:21:00;;;;;;;19.60;8.93;;;14.00;78.60;;;;;;20760909;28;20923;-76
2022/03/04 12:31:00;;;;;;;23.10;10.65;;;14.70;78.80;;;;;;20769375;28;20037;-76
2022/03/04 12:41:01;;;;;;;12.93;7.90;;;14.40;81.40;;;;;;20808718;28;20497;-76
2022/03/04 12:51:18;;;;;;;14.87;8.73;;;14.60;77.20;;;;;;20811713;28;20037;-76
2022/03/04 13:01:21;;;;;;;14.00;7.10;;;14.50;74.30;;;;;;20756392;28;20041;-76
2022/03/04 13:11:34;;;;;;;13.65;7.15;;;14.50;72.90;;;;;;20729563;28;20527;-76
2022/03/04 13:21:44;;;;;;;16.55;11.80;;;14.20;74.70;;;;;;20727962;28;20030;-76
2022/03/04 13:31:45;;;;;;;13.07;6.80;;;14.50;73.60;;;;;;20796146;22;20065;-76
2022/03/04 13:42:15;;;;;;;9.57;6.07;;;14.10;76.90;;;;;;21072835;28;20032;-76
2022/03/04 13:52:17;;;;;;;16.35;6.70;;;13.70;73.00;;;;;;20997623;28;20036;-76
2022/03/04 14:02:18;;;;;;;9.50;5.80;;;14.30;72.80;;;;;;20971299;28;20033;-76
2022/03/04 14:12:19;;;;;;;14.60;6.50;;;13.80;74.70;;;;;;20974983;28;20051;-76
2022/03/04 14:22:20;;;;;;;12.47;5.77;;;14.00;70.30;;;;;;20956335;28;20482;-76
2022/03/04 14:32:20;;;;;;;10.23;5.53;;;14.20;72.00;;;;;;20974576;28;20024;-77
2022/03/04 14:42:21;;;;;;;8.73;5.10;;;14.10;72.80;;;;;;20946265;28;20040;-75
2022/03/04 14:52:22;;;;;;;10.27;5.77;;;13.60;71.00;;;;;;20996711;28;20039;-77
2022/03/04 15:02:24;;;;;;;9.50;5.37;;;14.20;70.10;;;;;;20974490;28;20521;-77
2022/03/04 15:12:24;;;;;;;10.38;5.57;;;13.80;70.20;;;;;;20995835;28;20040;-76
2022/03/04 15:22:25;;;;;;;9.17;5.10;;;14.30;65.90;;;;;;20985873;28;20175;-75
2022/03/04 15:32:26;;;;;;;8.63;4.97;;;14.00;63.90;;;;;;20986347;28;20064;-76
2022/03/04 15:42:27;;;;;;;10.97;5.60;;;13.50;65.40;;;;;;20982883;28;20033;-76
2022/03/04 15:52:28;;;;;;;11.50;5.30;;;12.80;64.60;;;;;;21009817;28;20035;-76
2022/03/04 16:02:29;;;;;;;10.33;5.77;;;12.60;66.70;;;;;;21004416;28;20032;-74
2022/03/04 16:12:30;;;;;;;9.90;5.03;;;12.70;65.70;;;;;;20969405;28;20032;-76
2022/03/04 16:22:30;;;;;;;11.07;5.77;;;11.40;64.80;;;;;;20980896;28;20557;-75
2022/03/04 16:32:31;;;;;;;16.57;8.13;;;10.80;66.50;;;;;;20981099;28;20025;-74
2022/03/04 16:42:32;;;;;;;9.27;4.53;;;10.60;68.20;;;;;;20960544;28;20040;-75
2022/03/04 16:52:34;;;;;;;10.30;4.53;;;9.90;68.50;;;;;;20990903;28;20757;-75
2022/03/04 17:02:36;;;;;;;14.27;5.72;;;9.20;68.70;;;;;;20994149;28;20586;-75
2022/03/04 17:12:37;;;;;;;8.13;4.43;;;9.20;65.30;;;;;;20999327;28;20540;-76
2022/03/04 17:22:38;;;;;;;7.40;4.10;;;8.10;72.80;;;;;;20973260;28;20071;-75
2022/03/04 17:32:40;;;;;;;10.68;4.15;;;6.50;82.30;;;;;;20975830;28;20136;-75
2022/03/04 17:42:40;;;;;;;11.57;4.95;;;5.80;83.00;;;;;;20987792;28;20025;-76
2022/03/04 17:52:41;;;;;;;12.23;4.90;;;5.70;82.50;;;;;;20990210;28;20020;-76
2022/03/04 18:02:43;;;;;;;11.80;4.73;;;5.40;84.20;;;;;;20948875;28;20028;-75
2022/03/04 18:12:44;;;;;;;17.60;6.43;;;5.20;84.00;;;;;;20987704;28;20029;-74
2022/03/04 18:22:45;;;;;;;;;;;5.10;87.10;;;;;;20994025;28;20111;-75
2022/03/04 18:32:47;;;;;;;12.77;5.22;;;4.80;87.60;;;;;;20991983;28;19923;-75
2022/03/04 18:42:49;;;;;;;17.67;6.32;;;4.80;87.90;;;;;;20991594;28;20490;-74
2022/03/04 18:52:50;;;;;;;13.45;5.90;;;4.30;90.70;;;;;;20983314;28;20039;-74
2022/03/04 19:02:54;;;;;;;12.38;5.68;;;3.90;92.00;;;;;;21001641;28;20036;-75
2022/03/04 19:12:55;;;;;;;19.55;7.05;;;3.80;92.30;;;;;;20971559;28;20377;-73
2022/03/04 19:22:58;;;;;;;16.48;7.47;;;3.50;93.00;;;;;;21051725;28;20441;-75
2022/03/04 19:32:59;;;;;;;18.15;7.45;;;3.30;94.30;;;;;;21033703;22;20049;-73
2022/03/04 19:43:00;;;;;;;17.65;7.07;;;3.00;94.80;;;;;;20806819;28;20530;-73
2022/03/04 19:53:01;;;;;;;;;;;3.00;95.50;;;;;;20763598;28;20045;-73
2022/03/04 20:03:02;;;;;;;16.10;7.10;;;2.80;96.00;;;;;;20749250;28;19917;-73
2022/03/04 20:13:03;;;;;;;;;;;2.60;96.70;;;;;;20746162;28;20044;-72
2022/03/04 20:23:07;;;;;;;15.57;7.72;;;2.90;96.50;;;;;;20741799;28;19920;-72
2022/03/04 20:33:08;;;;;;;17.80;8.20;;;2.90;96.20;;;;;;20756286;28;20496;-72
2022/03/04 20:43:10;;;;;;;19.45;8.23;;;2.90;96.40;;;;;;20769290;28;20614;-71
2022/03/04 20:53:11;;;;;;;19.50;8.85;;;2.80;96.80;;;;;;20768992;28;20026;-72
2022/03/04 21:03:11;;;;;;;22.65;9.65;;;2.50;98.10;;;;;;20728350;28;20052;-72
2022/03/04 21:13:12;;;;;;;22.80;9.88;;;2.40;99.00;;;;;;20754416;28;20033;-72
2022/03/04 21:23:13;;;;;;;23.45;9.77;;;2.30;99.40;;;;;;20760162;28;20025;-71
2022/03/04 21:33:14;;;;;;;23.88;9.70;;;2.30;99.60;;;;;;20780943;28;20609;-72
2022/03/04 21:43:15;;;;;;;18.10;9.00;;;2.20;99.90;;;;;;20750095;28;20096;-72
2022/03/04 21:53:16;;;;;;;21.52;9.48;;;2.10;99.90;;;;;;20744466;28;20498;-73
2022/03/04 22:03:17;;;;;;;20.80;9.13;;;1.60;99.90;;;;;;20764648;28;20026;-72
2022/03/04 22:13:18;;;;;;;25.58;9.40;;;1.60;99.90;;;;;;20752234;28;20116;-72
2022/03/04 22:23:19;;;;;;;25.83;9.48;;;1.50;99.90;;;;;;20794263;28;20086;-72
2022/03/04 22:33:20;;;;;;;37.42;15.27;;;1.60;99.90;;;;;;20804969;28;20037;-72
2022/03/04 22:43:21;;;;;;;29.45;10.55;;;1.80;99.90;;;;;;20803287;28;20037;-72
2022/03/04 22:53:22;;;;;;;23.70;10.38;;;1.60;99.90;;;;;;20773263;28;20034;-72
2022/03/04 23:13:42;;;;;;;28.23;10.63;;;1.60;99.90;;;;;;20722471;28;20042;-71
2022/03/04 23:23:44;;;;;;;23.05;9.73;;;1.60;99.90;;;;;;20721975;28;20030;-72
2022/03/04 23:33:47;;;;;;;22.05;9.60;;;1.20;99.90;;;;;;20736380;28;20128;-72
2022/03/04 23:43:48;;;;;;;21.20;9.98;;;1.30;99.90;;;;;;20735622;28;20075;-71
2022/03/04 23:53:49;;;;;;;25.25;10.07;;;1.30;99.90;;;;;;20770623;28;20746;-71
